sensor_id;sensor_type;location;lat;lon;timestamp;temperature;humidity
17565;DHT22;62994;52.126;5.596;2024-01-15T00:04:36;4.10;99.90
17565;DHT22;62994;52.126;5.596;2024-01-15T00:07:03;4.00;99.90
17565;DHT22;62994;52.126;5.596;2024-01-15T00:09:30;4.00;99.90
17565;DHT22;62994;52.126;5.596;2024-01-15T00:11:57;4.00;99.90
17565;DHT22;62994;52.126;5.596;2024-01-15T00:14:24;4.00;99.90
17565;DHT22;62994;52.126;5.596;2024-01-15T00:16:51;4.00;99.90
17565;DHT22;62994;52.126;5.596;2024-01-15T00:19:20;3.90;99.90
17565;DHT22;62994;52.126;5.596;2024-01-15T00:21:49;3.90;99.90
17565;DHT22;62994;52.126;5.596;2024-01-15T00:43:44;3.60;99.90
17565;DHT22;62994;52.126;5.596;2024-01-15T00:46:11;3.60;99.90
17565;DHT22;62994;52.126;5.596;2024-01-15T00:48:38;3.60;99.90
17565;DHT22;62994;52.126;5.596;2024-01-15T00:51:05;3.50;99.90
17565;DHT22;62994;52.126;5.596;2024-01-15T00:53:32;3.50;99.90
17565;DHT22;62994;52.126;5.596;2024-01-15T00:55:59;3.50;99.90
17565;DHT22;62994;52.126;5.596;2024-01-15T00:58:26;3.50;99.90
17565;DHT22;62994;52.126;5.596;2024-01-15T01:00:54;3.50;99.90
17565;DHT22;62994;52.126;5.596;2024-01-15T01:03:21;3.50;99.90
17565;DHT22;62994;52.126;5.596;2024-01-15T01:05:48;3.50;99.90
17565;DHT22;62994;52.126;5.596;2024-01-15T01:08:16;3.50;99.90
17565;DHT22;62994;52.126;5.596;2024-01-15T01:10:43;3.50;99.90
17565;DHT22;62994;52.126;5.596;2024-01-15T01:13:10;3.60;99.90
17565;DHT22;62994;52.126;5.596;2024-01-15T01:15:37;3.60;99.90
17565;DHT22;62994;52.126;5.596;2024-01-15T01:18:05;3.50;99.90
17565;DHT22;62994;52.126;5.596;2024-01-15T01:20:32;3.50;99.90
17565;DHT22;62994;52.126;5.596;2024-01-15T01:22:59;3.50;99.90
17565;DHT22;62994;52.126;5.596;2024-01-15T01:25:26;3.50;99.90
17565;DHT22;62994;52.126;5.596;2024-01-15T01:27:53;3.60;99.90
17565;DHT22;62994;52.126;5.596;2024-01-15T01:30:20;3.50;99.90
17565;DHT22;62994;52.126;5.596;2024-01-15T01:32:47;3.50;99.90
17565;DHT22;62994;52.126;5.596;2024-01-15T01:35:15;3.50;99.90
17565;DHT22;62994;52.126;5.596;2024-01-15T01:37:42;3.50;99.90
17565;DHT22;62994;52.126;5.596;2024-01-15T01:40:10;3.50;99.90
17565;DHT22;62994;52.126;5.596;2024-01-15T01:42:36;3.50;99.90
17565;DHT22;62994;52.126;5.596;2024-01-15T01:45:04;3.50;99.90
17565;DHT22;62994;52.126;5.596;2024-01-15T01:47:32;3.50;99.90
17565;DHT22;62994;52.126;5.596;2024-01-15T01:49:59;3.50;99.90
17565;DHT22;62994;52.126;5.596;2024-01-15T01:52:27;3.50;99.90
17565;DHT22;62994;52.126;5.596;2024-01-15T01:54:54;3.50;99.90
17565;DHT22;62994;52.126;5.596;2024-01-15T01:57:22;3.50;99.90
17565;DHT22;62994;52.126;5.596;2024-01-15T01:59:49;3.50;99.90
17565;DHT22;62994;52.126;5.596;2024-01-15T02:02:17;3.50;99.90
17565;DHT22;62994;52.126;5.596;2024-01-15T02:04:44;3.50;99.90
17565;DHT22;62994;52.126;5.596;2024-01-15T02:07:13;3.50;99.90
17565;DHT22;62994;52.126;5.596;2024-01-15T02:09:44;3.50;99.90
17565;DHT22;62994;52.126;5.596;2024-01-15T02:12:11;3.50;99.90
17565;DHT22;62994;52.126;5.596;2024-01-15T02:14:39;3.40;99.90
17565;DHT22;62994;52.126;5.596;2024-01-15T02:17:06;3.40;99.90
17565;DHT22;62994;52.126;5.596;2024-01-15T02:19:33;3.40;99.90
17565;DHT22;62994;52.126;5.596;2024-01-15T02:22:00;3.40;99.90
17565;DHT22;62994;52.126;5.596;2024-01-15T02:24:28;3.40;99.90
17565;DHT22;62994;52.126;5.596;2024-01-15T02:26:55;3.30;99.90
17565;DHT22;62994;52.126;5.596;2024-01-15T02:29:22;3.30;99.90
17565;DHT22;62994;52.126;5.596;2024-01-15T02:31:49;3.20;99.90
17565;DHT22;62994;52.126;5.596;2024-01-15T02:34:16;3.20;99.90
17565;DHT22;62994;52.126;5.596;2024-01-15T02:36:43;3.20;99.90
17565;DHT22;62994;52.126;5.596;2024-01-15T02:39:10;3.20;99.90
17565;DHT22;62994;52.126;5.596;2024-01-15T02:41:38;3.20;99.90
17565;DHT22;62994;52.126;5.596;2024-01-15T02:44:05;3.20;99.90
17565;DHT22;62994;52.126;5.596;2024-01-15T02:46:32;3.10;99.90
17565;DHT22;62994;52.126;5.596;2024-01-15T02:48:59;3.10;99.90
17565;DHT22;62994;52.126;5.596;2024-01-15T02:51:26;3.20;99.90
17565;DHT22;62994;52.126;5.596;2024-01-15T02:53:53;3.10;99.90
17565;DHT22;62994;52.126;5.596;2024-01-15T02:56:20;3.20;99.90
17565;DHT22;62994;52.126;5.596;2024-01-15T02:58:48;3.20;99.90
17565;DHT22;62994;52.126;5.596;2024-01-15T03:01:15;3.10;99.90
17565;DHT22;62994;52.126;5.596;2024-01-15T03:03:42;3.20;99.90
17565;DHT22;62994;52.126;5.596;2024-01-15T03:06:09;3.20;99.90
17565;DHT22;62994;52.126;5.596;2024-01-15T03:08:36;3.20;99.90
17565;DHT22;62994;52.126;5.596;2024-01-15T03:11:03;3.20;99.90
17565;DHT22;62994;52.126;5.596;2024-01-15T03:13:30;3.20;99.90
17565;DHT22;62994;52.126;5.596;2024-01-15T03:15:58;3.30;99.90
17565;DHT22;62994;52.126;5.596;2024-01-15T03:18:25;3.30;99.90
17565;DHT22;62994;52.126;5.596;2024-01-15T03:20:52;3.20;99.90
17565;DHT22;62994;52.126;5.596;2024-01-15T03:23:19;3.30;99.90
17565;DHT22;62994;52.126;5.596;2024-01-15T03:25:46;3.30;99.90
17565;DHT22;62994;52.126;5.596;2024-01-15T03:28:13;3.30;99.90
17565;DHT22;62994;52.126;5.596;2024-01-15T03:30:40;3.30;99.90
17565;DHT22;62994;52.126;5.596;2024-01-15T03:33:08;3.40;99.90
17565;DHT22;62994;52.126;5.596;2024-01-15T03:35:35;3.30;99.90
17565;DHT22;62994;52.126;5.596;2024-01-15T03:38:02;3.40;99.90
17565;DHT22;62994;52.126;5.596;2024-01-15T03:40:29;3.40;99.90
17565;DHT22;62994;52.126;5.596;2024-01-15T03:42:56;3.40;99.90
17565;DHT22;62994;52.126;5.596;2024-01-15T03:45:22;3.40;99.90
17565;DHT22;62994;52.126;5.596;2024-01-15T03:47:49;3.40;99.90
17565;DHT22;62994;52.126;5.596;2024-01-15T03:50:18;3.40;99.90
17565;DHT22;62994;52.126;5.596;2024-01-15T03:52:44;3.40;99.90
17565;DHT22;62994;52.126;5.596;2024-01-15T03:55:16;3.40;99.90
17565;DHT22;62994;52.126;5.596;2024-01-15T03:57:43;3.50;99.90
17565;DHT22;62994;52.126;5.596;2024-01-15T04:00:11;3.50;99.90
17565;DHT22;62994;52.126;5.596;2024-01-15T04:02:38;3.50;99.90
17565;DHT22;62994;52.126;5.596;2024-01-15T04:05:05;3.40;99.90
17565;DHT22;62994;52.126;5.596;2024-01-15T04:07:33;3.40;99.90
17565;DHT22;62994;52.126;5.596;2024-01-15T04:10:00;3.40;99.90
17565;DHT22;62994;52.126;5.596;2024-01-15T04:12:28;3.40;99.90
17565;DHT22;62994;52.126;5.596;2024-01-15T04:14:55;3.40;99.90
17565;DHT22;62994;52.126;5.596;2024-01-15T04:17:22;3.30;99.90
17565;DHT22;62994;52.126;5.596;2024-01-15T04:19:49;3.30;99.90
17565;DHT22;62994;52.126;5.596;2024-01-15T04:22:16;3.30;99.90
17565;DHT22;62994;52.126;5.596;2024-01-15T04:24:44;3.30;99.90
17565;DHT22;62994;52.126;5.596;2024-01-15T04:27:11;3.30;99.90
17565;DHT22;62994;52.126;5.596;2024-01-15T04:29:38;3.30;99.90
17565;DHT22;62994;52.126;5.596;2024-01-15T04:32:05;3.30;99.90
17565;DHT22;62994;52.126;5.596;2024-01-15T04:34:32;3.30;99.90
17565;DHT22;62994;52.126;5.596;2024-01-15T04:36:59;3.30;99.90
17565;DHT22;62994;52.126;5.596;2024-01-15T04:39:26;3.30;99.90
17565;DHT22;62994;52.126;5.596;2024-01-15T04:41:54;3.30;99.90
17565;DHT22;62994;52.126;5.596;2024-01-15T04:44:22;3.30;99.90
17565;DHT22;62994;52.126;5.596;2024-01-15T04:46:49;3.30;99.90
17565;DHT22;62994;52.126;5.596;2024-01-15T04:49:16;3.20;99.90
17565;DHT22;62994;52.126;5.596;2024-01-15T04:51:43;3.20;99.90
17565;DHT22;62994;52.126;5.596;2024-01-15T04:54:10;3.20;99.90
17565;DHT22;62994;52.126;5.596;2024-01-15T04:56:37;3.20;99.90
17565;DHT22;62994;52.126;5.596;2024-01-15T04:59:05;3.20;99.90
17565;DHT22;62994;52.126;5.596;2024-01-15T05:01:33;3.20;99.90
17565;DHT22;62994;52.126;5.596;2024-01-15T05:04:00;3.20;99.90
17565;DHT22;62994;52.126;5.596;2024-01-15T05:06:28;3.20;99.90
17565;DHT22;62994;52.126;5.596;2024-01-15T05:08:54;3.20;99.90
17565;DHT22;62994;52.126;5.596;2024-01-15T05:11:21;3.20;99.90
17565;DHT22;62994;52.126;5.596;2024-01-15T05:13:48;3.20;99.90
17565;DHT22;62994;52.126;5.596;2024-01-15T05:16:17;3.20;99.90
17565;DHT22;62994;52.126;5.596;2024-01-15T05:18:43;3.10;99.90
17565;DHT22;62994;52.126;5.596;2024-01-15T05:21:10;3.00;99.90
17565;DHT22;62994;52.126;5.596;2024-01-15T05:23:38;3.00;99.90
17565;DHT22;62994;52.126;5.596;2024-01-15T05:26:05;3.00;99.90
17565;DHT22;62994;52.126;5.596;2024-01-15T05:28:32;3.00;99.90
17565;DHT22;62994;52.126;5.596;2024-01-15T05:31:00;3.00;99.90
17565;DHT22;62994;52.126;5.596;2024-01-15T05:33:28;3.00;99.90
17565;DHT22;62994;52.126;5.596;2024-01-15T05:35:55;3.00;99.90
17565;DHT22;62994;52.126;5.596;2024-01-15T05:38:24;3.00;99.90
17565;DHT22;62994;52.126;5.596;2024-01-15T05:40:51;3.10;99.90
17565;DHT22;62994;52.126;5.596;2024-01-15T05:43:18;3.00;99.90
17565;DHT22;62994;52.126;5.596;2024-01-15T05:45:45;3.00;99.90
17565;DHT22;62994;52.126;5.596;2024-01-15T05:48:12;3.10;99.90
17565;DHT22;62994;52.126;5.596;2024-01-15T05:50:41;3.10;99.90
17565;DHT22;62994;52.126;5.596;2024-01-15T05:53:08;3.10;99.90
17565;DHT22;62994;52.126;5.596;2024-01-15T05:55:35;3.10;99.90
17565;DHT22;62994;52.126;5.596;2024-01-15T05:58:03;3.10;99.90
17565;DHT22;62994;52.126;5.596;2024-01-15T06:00:30;3.10;99.90
17565;DHT22;62994;52.126;5.596;2024-01-15T06:02:58;3.10;99.90
17565;DHT22;62994;52.126;5.596;2024-01-15T06:05:25;3.20;99.90
17565;DHT22;62994;52.126;5.596;2024-01-15T06:07:53;3.10;99.90
17565;DHT22;62994;52.126;5.596;2024-01-15T06:10:20;3.20;99.90
17565;DHT22;62994;52.126;5.596;2024-01-15T06:12:47;3.20;99.90
17565;DHT22;62994;52.126;5.596;2024-01-15T06:15:14;3.20;99.90
17565;DHT22;62994;52.126;5.596;2024-01-15T06:17:41;3.30;99.90
17565;DHT22;62994;52.126;5.596;2024-01-15T06:20:09;3.30;99.90
17565;DHT22;62994;52.126;5.596;2024-01-15T06:22:36;3.20;99.90
17565;DHT22;62994;52.126;5.596;2024-01-15T06:25:07;3.30;99.90
17565;DHT22;62994;52.126;5.596;2024-01-15T06:27:34;3.30;99.90
17565;DHT22;62994;52.126;5.596;2024-01-15T06:30:02;3.20;99.90
17565;DHT22;62994;52.126;5.596;2024-01-15T06:32:29;3.30;99.90
17565;DHT22;62994;52.126;5.596;2024-01-15T06:34:56;3.30;99.90
17565;DHT22;62994;52.126;5.596;2024-01-15T06:37:23;3.30;99.90
17565;DHT22;62994;52.126;5.596;2024-01-15T06:39:50;3.20;99.90
17565;DHT22;62994;52.126;5.596;2024-01-15T06:42:18;3.20;99.90
17565;DHT22;62994;52.126;5.596;2024-01-15T06:44:47;3.20;99.90
17565;DHT22;62994;52.126;5.596;2024-01-15T06:47:15;3.20;99.90
17565;DHT22;62994;52.126;5.596;2024-01-15T06:49:43;3.20;99.90
17565;DHT22;62994;52.126;5.596;2024-01-15T06:52:10;3.30;99.90
17565;DHT22;62994;52.126;5.596;2024-01-15T06:54:37;3.20;99.90
17565;DHT22;62994;52.126;5.596;2024-01-15T06:57:05;3.20;99.90
17565;DHT22;62994;52.126;5.596;2024-01-15T06:59:33;3.20;99.90
17565;DHT22;62994;52.126;5.596;2024-01-15T07:02:00;3.20;99.90
17565;DHT22;62994;52.126;5.596;2024-01-15T07:04:28;3.20;99.90
17565;DHT22;62994;52.126;5.596;2024-01-15T07:06:55;3.10;99.90
17565;DHT22;62994;52.126;5.596;2024-01-15T07:09:22;3.10;99.90
17565;DHT22;62994;52.126;5.596;2024-01-15T07:11:49;3.10;99.90
17565;DHT22;62994;52.126;5.596;2024-01-15T07:14:16;3.10;99.90
17565;DHT22;62994;52.126;5.596;2024-01-15T07:16:44;3.10;99.90
17565;DHT22;62994;52.126;5.596;2024-01-15T07:19:11;3.10;99.90
17565;DHT22;62994;52.126;5.596;2024-01-15T07:21:38;3.10;99.90
17565;DHT22;62994;52.126;5.596;2024-01-15T07:24:08;3.10;99.90
17565;DHT22;62994;52.126;5.596;2024-01-15T07:26:34;3.10;99.90
17565;DHT22;62994;52.126;5.596;2024-01-15T07:29:01;3.10;99.90
17565;DHT22;62994;52.126;5.596;2024-01-15T07:31:29;3.10;99.90
17565;DHT22;62994;52.126;5.596;2024-01-15T07:33:57;3.10;99.90
17565;DHT22;62994;52.126;5.596;2024-01-15T07:36:24;3.20;99.90
17565;DHT22;62994;52.126;5.596;2024-01-15T07:38:54;3.10;99.90
17565;DHT22;62994;52.126;5.596;2024-01-15T07:41:21;3.10;99.90
17565;DHT22;62994;52.126;5.596;2024-01-15T07:43:49;3.10;99.90
17565;DHT22;62994;52.126;5.596;2024-01-15T07:46:16;3.10;99.90
17565;DHT22;62994;52.126;5.596;2024-01-15T07:48:43;3.20;99.90
17565;DHT22;62994;52.126;5.596;2024-01-15T07:51:11;3.10;99.90
17565;DHT22;62994;52.126;5.596;2024-01-15T07:53:38;3.10;99.90
17565;DHT22;62994;52.126;5.596;2024-01-15T07:56:05;3.20;99.90
17565;DHT22;62994;52.126;5.596;2024-01-15T07:58:32;3.20;99.90
17565;DHT22;62994;52.126;5.596;2024-01-15T08:00:59;3.20;99.90
17565;DHT22;62994;52.126;5.596;2024-01-15T08:03:26;3.20;99.90
17565;DHT22;62994;52.126;5.596;2024-01-15T08:05:53;3.20;99.90
17565;DHT22;62994;52.126;5.596;2024-01-15T08:08:24;3.20;99.90
17565;DHT22;62994;52.126;5.596;2024-01-15T08:10:52;3.20;99.90
17565;DHT22;62994;52.126;5.596;2024-01-15T08:13:19;3.20;99.90
17565;DHT22;62994;52.126;5.596;2024-01-15T08:15:46;3.20;99.90
17565;DHT22;62994;52.126;5.596;2024-01-15T08:18:13;3.10;99.90
17565;DHT22;62994;52.126;5.596;2024-01-15T08:20:40;3.10;99.90
17565;DHT22;62994;52.126;5.596;2024-01-15T08:23:07;3.10;99.90
17565;DHT22;62994;52.126;5.596;2024-01-15T08:25:35;3.10;99.90
17565;DHT22;62994;52.126;5.596;2024-01-15T08:28:02;3.10;99.90
17565;DHT22;62994;52.126;5.596;2024-01-15T08:30:29;3.10;99.90
17565;DHT22;62994;52.126;5.596;2024-01-15T08:32:57;3.10;99.90
17565;DHT22;62994;52.126;5.596;2024-01-15T08:35:25;3.10;99.90
17565;DHT22;62994;52.126;5.596;2024-01-15T08:37:52;3.10;99.90
17565;DHT22;62994;52.126;5.596;2024-01-15T08:40:19;3.10;99.90
17565;DHT22;62994;52.126;5.596;2024-01-15T08:42:47;3.10;99.90
17565;DHT22;62994;52.126;5.596;2024-01-15T08:45:14;3.00;99.90
17565;DHT22;62994;52.126;5.596;2024-01-15T08:47:41;3.00;99.90
17565;DHT22;62994;52.126;5.596;2024-01-15T08:50:08;3.00;99.90
17565;DHT22;62994;52.126;5.596;2024-01-15T08:52:36;3.00;99.90
17565;DHT22;62994;52.126;5.596;2024-01-15T08:55:04;2.90;99.90
17565;DHT22;62994;52.126;5.596;2024-01-15T08:57:32;2.90;99.90
17565;DHT22;62994;52.126;5.596;2024-01-15T09:00:01;3.00;99.90
17565;DHT22;62994;52.126;5.596;2024-01-15T09:02:29;3.00;99.90
17565;DHT22;62994;52.126;5.596;2024-01-15T09:04:56;3.00;99.90
17565;DHT22;62994;52.126;5.596;2024-01-15T09:07:23;3.00;99.90
17565;DHT22;62994;52.126;5.596;2024-01-15T09:09:50;3.00;99.90
17565;DHT22;62994;52.126;5.596;2024-01-15T09:12:17;3.00;99.90
17565;DHT22;62994;52.126;5.596;2024-01-15T09:14:46;3.00;99.90
17565;DHT22;62994;52.126;5.596;2024-01-15T09:17:14;3.00;99.90
17565;DHT22;62994;52.126;5.596;2024-01-15T09:19:41;3.00;99.90
17565;DHT22;62994;52.126;5.596;2024-01-15T09:22:08;3.00;99.90
17565;DHT22;62994;52.126;5.596;2024-01-15T09:24:35;3.00;99.90
17565;DHT22;62994;52.126;5.596;2024-01-15T09:27:03;3.00;99.90
17565;DHT22;62994;52.126;5.596;2024-01-15T09:29:29;3.10;99.90
17565;DHT22;62994;52.126;5.596;2024-01-15T09:31:57;3.10;99.90
17565;DHT22;62994;52.126;5.596;2024-01-15T09:34:25;3.10;99.90
17565;DHT22;62994;52.126;5.596;2024-01-15T09:36:52;3.20;99.90
17565;DHT22;62994;52.126;5.596;2024-01-15T09:39:19;3.20;99.90
17565;DHT22;62994;52.126;5.596;2024-01-15T09:41:48;3.20;99.90
17565;DHT22;62994;52.126;5.596;2024-01-15T09:44:16;3.20;99.90
17565;DHT22;62994;52.126;5.596;2024-01-15T09:46:43;3.20;99.90
17565;DHT22;62994;52.126;5.596;2024-01-15T09:49:10;3.20;99.90
17565;DHT22;62994;52.126;5.596;2024-01-15T09:51:39;3.20;99.90
17565;DHT22;62994;52.126;5.596;2024-01-15T09:54:07;3.10;99.90
17565;DHT22;62994;52.126;5.596;2024-01-15T09:56:34;3.10;99.90
17565;DHT22;62994;52.126;5.596;2024-01-15T09:59:02;3.20;99.90
17565;DHT22;62994;52.126;5.596;2024-01-15T10:01:31;3.20;99.90
17565;DHT22;62994;52.126;5.596;2024-01-15T10:03:59;3.20;99.90
17565;DHT22;62994;52.126;5.596;2024-01-15T10:06:27;3.20;99.90
17565;DHT22;62994;52.126;5.596;2024-01-15T10:08:57;3.30;99.90
17565;DHT22;62994;52.126;5.596;2024-01-15T10:11:25;3.30;99.90
17565;DHT22;62994;52.126;5.596;2024-01-15T10:13:52;3.30;99.90
17565;DHT22;62994;52.126;5.596;2024-01-15T10:16:20;3.30;99.90
17565;DHT22;62994;52.126;5.596;2024-01-15T10:18:47;3.30;99.90
17565;DHT22;62994;52.126;5.596;2024-01-15T10:21:14;3.30;99.90
17565;DHT22;62994;52.126;5.596;2024-01-15T10:23:41;3.30;99.90
17565;DHT22;62994;52.126;5.596;2024-01-15T10:26:10;3.20;99.90
17565;DHT22;62994;52.126;5.596;2024-01-15T10:28:37;3.20;99.90
17565;DHT22;62994;52.126;5.596;2024-01-15T10:31:05;3.30;99.90
17565;DHT22;62994;52.126;5.596;2024-01-15T10:33:32;3.30;99.90
17565;DHT22;62994;52.126;5.596;2024-01-15T10:36:00;3.30;99.90
17565;DHT22;62994;52.126;5.596;2024-01-15T10:38:27;3.40;99.90
17565;DHT22;62994;52.126;5.596;2024-01-15T10:40:55;3.40;99.90
17565;DHT22;62994;52.126;5.596;2024-01-15T10:43:23;3.40;99.90
17565;DHT22;62994;52.126;5.596;2024-01-15T10:45:51;3.40;99.90
17565;DHT22;62994;52.126;5.596;2024-01-15T10:48:19;3.40;99.90
17565;DHT22;62994;52.126;5.596;2024-01-15T10:50:47;3.40;99.90
17565;DHT22;62994;52.126;5.596;2024-01-15T10:53:15;3.40;99.90
17565;DHT22;62994;52.126;5.596;2024-01-15T10:55:43;3.40;99.90
17565;DHT22;62994;52.126;5.596;2024-01-15T10:58:10;3.60;99.90
17565;DHT22;62994;52.126;5.596;2024-01-15T11:00:38;3.70;99.90
17565;DHT22;62994;52.126;5.596;2024-01-15T11:03:06;3.70;99.90
17565;DHT22;62994;52.126;5.596;2024-01-15T11:05:34;3.70;99.90
17565;DHT22;62994;52.126;5.596;2024-01-15T11:08:02;3.60;99.90
17565;DHT22;62994;52.126;5.596;2024-01-15T11:10:38;3.60;99.90
17565;DHT22;62994;52.126;5.596;2024-01-15T11:13:09;3.60;99.90
17565;DHT22;62994;52.126;5.596;2024-01-15T11:16:01;3.60;99.90
17565;DHT22;62994;52.126;5.596;2024-01-15T11:18:30;3.60;99.90
17565;DHT22;62994;52.126;5.596;2024-01-15T11:21:21;3.60;99.90
17565;DHT22;62994;52.126;5.596;2024-01-15T11:23:50;3.60;99.90
17565;DHT22;62994;52.126;5.596;2024-01-15T11:26:35;3.60;99.90
17565;DHT22;62994;52.126;5.596;2024-01-15T11:29:05;3.60;99.90
17565;DHT22;62994;52.126;5.596;2024-01-15T11:31:59;3.60;99.90
17565;DHT22;62994;52.126;5.596;2024-01-15T11:34:55;3.60;99.90
17565;DHT22;62994;52.126;5.596;2024-01-15T11:37:28;3.60;99.90
17565;DHT22;62994;52.126;5.596;2024-01-15T11:40:04;3.60;99.90
17565;DHT22;62994;52.126;5.596;2024-01-15T11:42:31;3.60;99.90
17565;DHT22;62994;52.126;5.596;2024-01-15T11:44:58;3.60;99.90
17565;DHT22;62994;52.126;5.596;2024-01-15T11:50:42;3.70;99.90
17565;DHT22;62994;52.126;5.596;2024-01-15T11:53:17;3.70;99.90
17565;DHT22;62994;52.126;5.596;2024-01-15T11:55:48;3.70;99.90
17565;DHT22;62994;52.126;5.596;2024-01-15T11:58:17;3.70;99.90
17565;DHT22;62994;52.126;5.596;2024-01-15T12:00:48;3.70;99.90
17565;DHT22;62994;52.126;5.596;2024-01-15T12:03:18;3.80;99.90
17565;DHT22;62994;52.126;5.596;2024-01-15T12:05:54;3.80;99.90
17565;DHT22;62994;52.126;5.596;2024-01-15T12:08:25;3.90;99.90
17565;DHT22;62994;52.126;5.596;2024-01-15T12:10:53;3.90;99.90
17565;DHT22;62994;52.126;5.596;2024-01-15T12:13:20;3.90;99.90
17565;DHT22;62994;52.126;5.596;2024-01-15T12:15:48;4.00;99.90
17565;DHT22;62994;52.126;5.596;2024-01-15T12:18:18;4.00;99.90
17565;DHT22;62994;52.126;5.596;2024-01-15T12:20:46;4.00;99.90
17565;DHT22;62994;52.126;5.596;2024-01-15T12:23:13;3.90;99.90
17565;DHT22;62994;52.126;5.596;2024-01-15T12:25:41;3.90;99.90
17565;DHT22;62994;52.126;5.596;2024-01-15T12:28:08;3.80;99.90
17565;DHT22;62994;52.126;5.596;2024-01-15T12:30:35;3.80;99.90
17565;DHT22;62994;52.126;5.596;2024-01-15T12:33:04;3.80;99.90
17565;DHT22;62994;52.126;5.596;2024-01-15T12:35:33;3.80;99.90
17565;DHT22;62994;52.126;5.596;2024-01-15T12:38:01;3.80;99.90
17565;DHT22;62994;52.126;5.596;2024-01-15T12:40:29;3.80;99.90
17565;DHT22;62994;52.126;5.596;2024-01-15T12:42:56;3.90;99.90
17565;DHT22;62994;52.126;5.596;2024-01-15T12:45:24;3.90;99.90
17565;DHT22;62994;52.126;5.596;2024-01-15T12:47:51;3.90;99.90
17565;DHT22;62994;52.126;5.596;2024-01-15T12:50:18;3.90;99.90
17565;DHT22;62994;52.126;5.596;2024-01-15T12:52:46;4.00;99.90
17565;DHT22;62994;52.126;5.596;2024-01-15T12:55:13;4.00;99.90
17565;DHT22;62994;52.126;5.596;2024-01-15T12:57:41;4.00;99.90
17565;DHT22;62994;52.126;5.596;2024-01-15T13:00:08;4.00;99.90
17565;DHT22;62994;52.126;5.596;2024-01-15T13:02:38;4.00;99.90
17565;DHT22;62994;52.126;5.596;2024-01-15T13:05:06;4.00;99.90
17565;DHT22;62994;52.126;5.596;2024-01-15T13:07:34;4.00;99.90
17565;DHT22;62994;52.126;5.596;2024-01-15T13:10:02;4.10;99.90
17565;DHT22;62994;52.126;5.596;2024-01-15T13:12:29;4.10;99.90
17565;DHT22;62994;52.126;5.596;2024-01-15T13:14:57;4.10;99.90
17565;DHT22;62994;52.126;5.596;2024-01-15T13:17:24;4.10;99.90
17565;DHT22;62994;52.126;5.596;2024-01-15T13:19:51;4.10;99.90
17565;DHT22;62994;52.126;5.596;2024-01-15T13:22:18;4.10;99.90
17565;DHT22;62994;52.126;5.596;2024-01-15T13:24:48;4.10;99.90
17565;DHT22;62994;52.126;5.596;2024-01-15T13:27:16;4.10;99.90
17565;DHT22;62994;52.126;5.596;2024-01-15T13:29:43;4.10;99.90
17565;DHT22;62994;52.126;5.596;2024-01-15T13:32:12;4.00;99.90
17565;DHT22;62994;52.126;5.596;2024-01-15T13:34:46;4.00;99.90
17565;DHT22;62994;52.126;5.596;2024-01-15T13:37:13;4.00;99.90
17565;DHT22;62994;52.126;5.596;2024-01-15T13:39:40;4.00;99.90
17565;DHT22;62994;52.126;5.596;2024-01-15T13:42:07;4.00;99.90
17565;DHT22;62994;52.126;5.596;2024-01-15T13:44:35;4.00;99.90
17565;DHT22;62994;52.126;5.596;2024-01-15T13:47:02;4.00;99.90
17565;DHT22;62994;52.126;5.596;2024-01-15T13:49:30;4.00;99.90
17565;DHT22;62994;52.126;5.596;2024-01-15T13:51:59;4.00;99.90
17565;DHT22;62994;52.126;5.596;2024-01-15T13:54:29;4.00;99.90
17565;DHT22;62994;52.126;5.596;2024-01-15T13:56:56;4.00;99.90
17565;DHT22;62994;52.126;5.596;2024-01-15T13:59:24;4.10;99.90
17565;DHT22;62994;52.126;5.596;2024-01-15T14:01:53;4.10;99.90
17565;DHT22;62994;52.126;5.596;2024-01-15T14:04:20;4.20;99.90
17565;DHT22;62994;52.126;5.596;2024-01-15T14:06:47;4.20;99.90
17565;DHT22;62994;52.126;5.596;2024-01-15T14:09:13;4.20;99.90
17565;DHT22;62994;52.126;5.596;2024-01-15T14:11:41;4.20;99.90
17565;DHT22;62994;52.126;5.596;2024-01-15T14:14:07;4.20;99.90
17565;DHT22;62994;52.126;5.596;2024-01-15T14:16:34;4.10;99.90
17565;DHT22;62994;52.126;5.596;2024-01-15T14:19:03;4.20;99.90
17565;DHT22;62994;52.126;5.596;2024-01-15T14:21:31;4.20;99.90
17565;DHT22;62994;52.126;5.596;2024-01-15T14:23:58;4.20;99.90
17565;DHT22;62994;52.126;5.596;2024-01-15T14:26:25;4.30;99.90
17565;DHT22;62994;52.126;5.596;2024-01-15T14:28:53;4.30;99.90
17565;DHT22;62994;52.126;5.596;2024-01-15T14:31:20;4.30;99.90
17565;DHT22;62994;52.126;5.596;2024-01-15T14:33:47;4.30;99.90
17565;DHT22;62994;52.126;5.596;2024-01-15T14:36:15;4.30;99.90
17565;DHT22;62994;52.126;5.596;2024-01-15T14:38:42;4.30;99.90
17565;DHT22;62994;52.126;5.596;2024-01-15T14:41:09;4.30;99.90
17565;DHT22;62994;52.126;5.596;2024-01-15T14:43:36;4.30;99.90
17565;DHT22;62994;52.126;5.596;2024-01-15T14:46:03;4.20;99.90
17565;DHT22;62994;52.126;5.596;2024-01-15T14:48:31;4.30;99.90
17565;DHT22;62994;52.126;5.596;2024-01-15T14:51:04;4.30;99.90
17565;DHT22;62994;52.126;5.596;2024-01-15T14:53:32;4.30;99.90
17565;DHT22;62994;52.126;5.596;2024-01-15T14:56:01;4.30;99.90
17565;DHT22;62994;52.126;5.596;2024-01-15T14:58:28;4.30;99.90
17565;DHT22;62994;52.126;5.596;2024-01-15T15:00:55;4.30;99.90
17565;DHT22;62994;52.126;5.596;2024-01-15T15:03:22;4.30;99.90
17565;DHT22;62994;52.126;5.596;2024-01-15T15:05:54;4.30;99.90
17565;DHT22;62994;52.126;5.596;2024-01-15T15:08:21;4.30;99.90
17565;DHT22;62994;52.126;5.596;2024-01-15T15:10:50;4.30;99.90
17565;DHT22;62994;52.126;5.596;2024-01-15T15:13:17;4.30;99.90
17565;DHT22;62994;52.126;5.596;2024-01-15T15:15:44;4.30;99.90
17565;DHT22;62994;52.126;5.596;2024-01-15T15:18:11;4.20;99.90
17565;DHT22;62994;52.126;5.596;2024-01-15T15:20:38;4.30;99.90
17565;DHT22;62994;52.126;5.596;2024-01-15T15:23:05;4.20;99.90
17565;DHT22;62994;52.126;5.596;2024-01-15T15:25:34;4.20;99.90
17565;DHT22;62994;52.126;5.596;2024-01-15T15:28:02;4.20;99.90
17565;DHT22;62994;52.126;5.596;2024-01-15T15:30:30;4.20;99.90
17565;DHT22;62994;52.126;5.596;2024-01-15T15:32:57;4.20;99.90
17565;DHT22;62994;52.126;5.596;2024-01-15T15:35:24;4.10;99.90
17565;DHT22;62994;52.126;5.596;2024-01-15T15:37:51;4.10;99.90
17565;DHT22;62994;52.126;5.596;2024-01-15T15:40:18;4.10;99.90
17565;DHT22;62994;52.126;5.596;2024-01-15T15:42:46;4.10;99.90
17565;DHT22;62994;52.126;5.596;2024-01-15T15:45:14;4.00;99.90
17565;DHT22;62994;52.126;5.596;2024-01-15T15:47:42;4.00;99.90
17565;DHT22;62994;52.126;5.596;2024-01-15T15:50:09;4.00;99.90
17565;DHT22;62994;52.126;5.596;2024-01-15T15:52:36;3.80;99.90
17565;DHT22;62994;52.126;5.596;2024-01-15T15:55:04;3.80;99.90
17565;DHT22;62994;52.126;5.596;2024-01-15T15:57:31;3.70;99.90
17565;DHT22;62994;52.126;5.596;2024-01-15T15:59:57;3.70;99.90
17565;DHT22;62994;52.126;5.596;2024-01-15T16:02:26;3.70;99.90
17565;DHT22;62994;52.126;5.596;2024-01-15T16:04:53;3.70;99.90
17565;DHT22;62994;52.126;5.596;2024-01-15T16:07:21;3.60;99.90
17565;DHT22;62994;52.126;5.596;2024-01-15T16:09:53;3.60;99.90
17565;DHT22;62994;52.126;5.596;2024-01-15T16:12:20;3.60;99.90
17565;DHT22;62994;52.126;5.596;2024-01-15T16:14:47;3.60;99.90